createdAt,value
2018-12-20T00:02:23.285Z,9.87
2018-12-20T00:04:52.421Z,8.90
2018-12-20T00:07:21.753Z,8.43
2018-12-20T00:09:51.151Z,7.87
2018-12-20T00:12:20.515Z,9.17
2018-12-20T00:14:49.523Z,8.83
2018-12-20T00:17:24.161Z,10.77
2018-12-20T00:19:53.390Z,8.43
2018-12-20T00:22:22.629Z,10.70
2018-12-20T00:24:52.052Z,12.07
2018-12-20T00:27:21.432Z,9.10
2018-12-20T00:29:50.707Z,9.60
2018-12-20T00:32:20.371Z,10.77
2018-12-20T00:34:49.381Z,9.77
2018-12-20T00:37:18.397Z,11.30
2018-12-20T00:39:47.864Z,9.87
2018-12-20T00:42:17.321Z,12.13
2018-12-20T00:44:46.748Z,10.27
2018-12-20T00:47:16.358Z,10.63
2018-12-20T00:49:45.433Z,11.90
2018-12-20T00:52:14.483Z,12.63
2018-12-20T00:54:43.770Z,11.03
2018-12-20T00:57:12.936Z,11.00
2018-12-20T00:59:42.141Z,12.03
2018-12-20T01:02:11.396Z,14.10
2018-12-20T01:04:40.553Z,9.97
2018-12-20T01:07:10.255Z,12.23
2018-12-20T01:09:39.414Z,11.57
2018-12-20T01:12:08.859Z,11.43
2018-12-20T01:14:45.209Z,12.83
2018-12-20T01:17:09.654Z,14.40
2018-12-20T01:19:39.020Z,11.63
2018-12-20T01:22:08.233Z,14.97
2018-12-20T01:24:37.629Z,15.50
2018-12-20T01:27:07.068Z,18.43
2018-12-20T01:29:36.645Z,16.10
2018-12-20T01:32:06.222Z,16.27
2018-12-20T01:34:35.574Z,15.33
2018-12-20T01:37:05.095Z,19.13
2018-12-20T01:39:34.078Z,17.73
2018-12-20T01:42:03.983Z,18.53
2018-12-20T01:44:33.257Z,20.03
2018-12-20T01:47:02.443Z,17.87
2018-12-20T01:49:31.864Z,17.30
2018-12-20T01:52:01.164Z,22.23
2018-12-20T01:54:30.502Z,19.30
2018-12-20T01:57:00.244Z,20.20
2018-12-20T01:59:29.749Z,21.20
2018-12-20T02:01:59.169Z,19.47
2018-12-20T02:04:28.410Z,18.90
2018-12-20T02:06:57.706Z,18.27
2018-12-20T02:09:27.231Z,18.00
2018-12-20T02:11:56.383Z,19.20
2018-12-20T02:14:25.744Z,20.27
2018-12-20T02:16:55.392Z,21.10
2018-12-20T02:19:24.873Z,19.10
2018-12-20T02:21:54.470Z,17.70
2018-12-20T02:24:23.847Z,14.97
2018-12-20T02:26:53.267Z,15.73
2018-12-20T02:29:22.675Z,15.13
2018-12-20T02:31:52.508Z,16.20
2018-12-20T02:34:22.198Z,15.77
2018-12-20T02:36:51.450Z,12.43
2018-12-20T02:39:21.151Z,17.80
2018-12-20T02:41:50.354Z,14.13
2018-12-20T02:44:19.861Z,13.27
2018-12-20T02:46:49.179Z,20.33
2018-12-20T02:49:18.621Z,20.00
2018-12-20T02:51:47.944Z,17.97
2018-12-20T02:54:17.111Z,18.73
2018-12-20T02:56:46.476Z,20.17
2018-12-20T02:59:15.824Z,17.33
2018-12-20T03:01:44.931Z,21.03
2018-12-20T03:04:14.435Z,22.23
2018-12-20T03:06:43.572Z,21.30
2018-12-20T03:09:12.707Z,20.63
2018-12-20T03:11:41.860Z,22.57
2018-12-20T03:14:11.057Z,19.27
2018-12-20T03:16:40.402Z,20.57
2018-12-20T03:19:09.738Z,19.67
2018-12-20T03:21:38.900Z,18.83
2018-12-20T03:24:08.648Z,18.90
2018-12-20T03:26:38.802Z,17.80
2018-12-20T03:29:08.139Z,18.30
2018-12-20T03:31:37.847Z,20.10
2018-12-20T03:34:07.194Z,20.30
2018-12-20T03:36:36.571Z,22.13
2018-12-20T03:39:10.466Z,16.03
2018-12-20T03:41:40.054Z,17.30
2018-12-20T03:44:09.553Z,12.90
2018-12-20T03:46:38.952Z,9.57
2018-12-20T03:49:08.412Z,7.20
2018-12-20T03:51:37.665Z,6.83
2018-12-20T03:54:07.085Z,4.20
2018-12-20T03:56:36.748Z,4.93
2018-12-20T03:59:06.177Z,4.27
2018-12-20T04:01:35.523Z,3.67
2018-12-20T04:04:04.971Z,7.10
2018-12-20T04:06:34.186Z,8.27
2018-12-20T04:09:04.415Z,5.03
2018-12-20T04:11:33.776Z,3.10
2018-12-20T04:14:03.593Z,2.73
2018-12-20T04:16:33.118Z,3.03
2018-12-20T04:19:02.680Z,3.23
2018-12-20T04:21:31.996Z,3.03
2018-12-20T04:24:01.117Z,4.67
2018-12-20T04:26:30.774Z,2.50
2018-12-20T04:29:04.325Z,3.13
2018-12-20T04:31:33.769Z,2.80
2018-12-20T04:34:03.015Z,2.73
2018-12-20T04:36:32.280Z,3.77
2018-12-20T04:39:03.095Z,1.97
2018-12-20T04:41:32.458Z,3.63
2018-12-20T04:44:04.553Z,4.07
2018-12-20T04:46:34.002Z,6.40
2018-12-20T04:49:05.014Z,5.93
2018-12-20T04:51:34.451Z,5.67
2018-12-20T04:54:03.650Z,5.00
2018-12-20T04:56:32.778Z,5.70
2018-12-20T04:59:02.591Z,6.87
2018-12-20T05:01:31.920Z,6.93
2018-12-20T05:04:01.415Z,6.07
2018-12-20T05:06:30.910Z,9.17
2018-12-20T05:09:00.078Z,7.07
2018-12-20T05:11:29.818Z,6.77
2018-12-20T05:13:59.219Z,6.37
2018-12-20T05:16:28.439Z,6.37
2018-12-20T05:18:57.866Z,7.47
2018-12-20T05:21:27.101Z,8.23
2018-12-20T05:23:56.989Z,5.73
2018-12-20T05:26:26.765Z,7.73
2018-12-20T05:28:56.366Z,8.47
2018-12-20T05:31:25.822Z,6.43
2018-12-20T05:33:55.379Z,8.57
2018-12-20T05:36:24.491Z,6.37
2018-12-20T05:38:53.939Z,10.57
2018-12-20T05:41:23.098Z,8.23
2018-12-20T05:43:52.366Z,9.43
2018-12-20T05:46:21.883Z,8.70
2018-12-20T05:48:51.307Z,8.27
2018-12-20T05:51:20.722Z,8.00
2018-12-20T05:53:49.795Z,8.70
2018-12-20T05:56:19.410Z,7.27
2018-12-20T05:58:48.601Z,10.03
2018-12-20T06:01:18.351Z,7.63
2018-12-20T06:03:47.751Z,10.90
2018-12-20T06:06:17.279Z,9.20
2018-12-20T06:08:46.614Z,8.40
2018-12-20T06:11:15.363Z,7.77
2018-12-20T06:13:44.734Z,8.67
2018-12-20T06:16:14.513Z,9.67
2018-12-20T06:18:43.960Z,8.30
2018-12-20T06:21:13.862Z,7.60
2018-12-20T06:23:43.559Z,7.57
2018-12-20T06:26:12.643Z,12.73
2018-12-20T06:28:41.820Z,12.23
2018-12-20T06:31:10.911Z,13.10
2018-12-20T06:33:39.994Z,13.70
2018-12-20T06:36:09.277Z,11.07
2018-12-20T06:38:38.459Z,10.47
2018-12-20T06:41:07.631Z,8.63
2018-12-20T06:43:36.631Z,7.10
2018-12-20T06:46:06.182Z,6.50
2018-12-20T06:48:35.924Z,9.93
2018-12-20T06:51:05.316Z,7.80
2018-12-20T06:53:41.681Z,12.00
2018-12-20T06:56:10.881Z,14.37
2018-12-20T06:58:40.081Z,10.77
2018-12-20T07:01:09.371Z,17.33
2018-12-20T07:03:38.373Z,14.53
2018-12-20T07:06:07.765Z,15.17
2018-12-20T07:08:37.086Z,15.27
2018-12-20T07:11:06.270Z,16.00
2018-12-20T07:13:35.453Z,18.53
2018-12-20T07:16:04.966Z,21.63
2018-12-20T07:18:34.463Z,22.53
2018-12-20T07:21:03.756Z,21.50
2018-12-20T07:23:32.990Z,20.67
2018-12-20T07:26:02.237Z,20.37
2018-12-20T07:28:31.573Z,21.27
2018-12-20T07:31:03.453Z,16.50
2018-12-20T07:33:33.329Z,21.37
2018-12-20T07:36:02.518Z,18.87
2018-12-20T07:38:31.799Z,16.57
2018-12-20T07:41:01.524Z,14.93
2018-12-20T07:43:30.952Z,13.97
2018-12-20T07:46:00.840Z,13.57
2018-12-20T07:48:32.282Z,21.80
2018-12-20T07:51:01.107Z,11.07
2018-12-20T07:53:30.418Z,19.10
2018-12-20T07:55:59.723Z,16.57
2018-12-20T07:58:29.489Z,13.20
2018-12-20T08:00:59.106Z,9.77
2018-12-20T08:03:28.201Z,8.07
2018-12-20T08:05:57.182Z,10.73
2018-12-20T08:08:26.540Z,7.37
2018-12-20T08:10:56.278Z,6.70
2018-12-20T08:13:25.414Z,7.10
2018-12-20T08:15:54.687Z,6.70
2018-12-20T08:18:24.045Z,5.27
2018-12-20T08:20:53.194Z,4.33
2018-12-20T08:23:22.420Z,6.47
2018-12-20T08:25:51.611Z,5.30
2018-12-20T08:28:20.866Z,3.33
2018-12-20T08:30:50.026Z,3.47
2018-12-20T08:33:19.661Z,5.03
2018-12-20T08:35:48.574Z,4.67
2018-12-20T08:38:17.776Z,2.97
2018-12-20T08:40:47.166Z,3.40
2018-12-20T08:43:16.485Z,2.43
2018-12-20T08:45:45.832Z,3.60
2018-12-20T08:48:18.029Z,8.03
2018-12-20T08:50:47.222Z,8.53
2018-12-20T08:53:16.324Z,13.83
2018-12-20T08:55:45.594Z,6.90
2018-12-20T08:58:14.963Z,9.77
2018-12-20T09:00:44.203Z,11.57
2018-12-20T09:03:13.843Z,11.57
2018-12-20T09:05:43.154Z,7.57
2018-12-20T09:08:12.273Z,6.00
2018-12-20T09:10:41.655Z,2.17
2018-12-20T09:13:10.708Z,2.00
2018-12-20T09:15:40.131Z,3.17
2018-12-20T09:18:09.422Z,3.00
2018-12-20T09:20:38.511Z,1.87
2018-12-20T09:23:07.802Z,2.13
2018-12-20T09:25:36.930Z,4.97
2018-12-20T09:28:06.053Z,4.00
2018-12-20T09:30:35.431Z,3.33
2018-12-20T09:33:04.803Z,3.67
2018-12-20T09:35:33.927Z,4.30
2018-12-20T09:38:03.226Z,3.97
2018-12-20T09:40:32.849Z,3.07
2018-12-20T09:43:02.415Z,4.07
2018-12-20T09:45:31.759Z,5.57
2018-12-20T09:48:05.627Z,2.60
2018-12-20T09:50:35.269Z,3.87
2018-12-20T09:53:04.536Z,3.80
2018-12-20T09:55:34.049Z,3.63
2018-12-20T09:58:03.094Z,1.20
2018-12-20T10:00:32.523Z,6.03
2018-12-20T10:03:01.625Z,1.77
2018-12-20T10:05:33.675Z,2.37
2018-12-20T10:08:02.988Z,3.83
2018-12-20T10:10:32.060Z,4.00
2018-12-20T10:13:01.364Z,3.67
2018-12-20T10:15:30.605Z,2.47
2018-12-20T10:18:00.159Z,1.63
2018-12-20T10:20:29.270Z,5.43
2018-12-20T10:22:58.414Z,4.00
2018-12-20T10:25:27.845Z,4.60
2018-12-20T10:27:57.110Z,9.50
2018-12-20T10:30:26.663Z,4.73
2018-12-20T10:32:55.971Z,6.40
2018-12-20T10:35:25.283Z,5.40
2018-12-20T10:37:54.447Z,6.90
2018-12-20T10:40:23.656Z,8.70
2018-12-20T10:42:52.837Z,4.20
2018-12-20T10:45:22.035Z,4.40
2018-12-20T10:47:51.730Z,5.93
2018-12-20T10:50:21.467Z,5.43
2018-12-20T10:52:50.470Z,8.00
2018-12-20T10:55:19.831Z,4.70
2018-12-20T10:57:49.265Z,3.90
2018-12-20T11:00:18.506Z,2.43
2018-12-20T11:02:53.167Z,5.60
2018-12-20T11:05:25.361Z,9.20
2018-12-20T11:08:00.147Z,10.67
2018-12-20T11:10:29.680Z,8.07
2018-12-20T11:13:01.223Z,5.23
2018-12-20T11:15:30.303Z,3.50
2018-12-20T11:17:59.538Z,9.23
2018-12-20T11:20:28.684Z,4.00
2018-12-20T11:22:58.312Z,5.87
2018-12-20T11:25:27.644Z,6.73
2018-12-20T11:27:56.995Z,6.00
2018-12-20T11:30:26.289Z,4.63
2018-12-20T11:32:56.157Z,5.93
2018-12-20T11:35:25.462Z,2.70
2018-12-20T11:38:00.859Z,4.00
2018-12-20T11:40:30.444Z,5.07
2018-12-20T11:42:59.855Z,10.23
2018-12-20T11:45:29.212Z,6.70
2018-12-20T11:47:58.394Z,5.67
2018-12-20T11:50:27.897Z,5.17
2018-12-20T11:52:57.715Z,4.07
2018-12-20T11:55:27.475Z,3.63
2018-12-20T11:57:56.727Z,3.13
2018-12-20T12:00:26.207Z,7.63
2018-12-20T12:02:55.928Z,3.67
2018-12-20T12:05:25.401Z,5.70
2018-12-20T12:07:54.724Z,3.53
2018-12-20T12:10:23.913Z,3.60
2018-12-20T12:12:53.215Z,0.90
2018-12-20T12:15:22.642Z,2.67
2018-12-20T12:17:54.312Z,5.70
2018-12-20T12:20:23.076Z,4.13
2018-12-20T12:22:52.206Z,3.73
2018-12-20T12:25:21.513Z,2.10
2018-12-20T12:27:50.644Z,4.00
2018-12-20T12:30:19.862Z,4.97
2018-12-20T12:32:49.267Z,5.83
2018-12-20T12:35:18.340Z,3.13
2018-12-20T12:37:47.496Z,4.47
2018-12-20T12:40:17.129Z,4.17
2018-12-20T12:42:46.406Z,4.70
2018-12-20T12:45:15.558Z,6.77
2018-12-20T12:47:49.998Z,5.53
2018-12-20T12:50:19.356Z,2.70
2018-12-20T12:52:48.517Z,5.57
2018-12-20T12:55:17.645Z,6.83
2018-12-20T12:57:47.060Z,14.83
2018-12-20T13:00:20.345Z,5.70
2018-12-20T13:02:49.861Z,4.23
2018-12-20T13:05:18.907Z,3.07
2018-12-20T13:07:48.124Z,6.27
2018-12-20T13:10:17.416Z,6.00
2018-12-20T13:12:46.779Z,6.40
2018-12-20T13:15:16.175Z,4.77
2018-12-20T13:17:45.945Z,6.10
2018-12-20T13:20:16.192Z,4.63
2018-12-20T13:22:45.470Z,3.30
2018-12-20T13:25:14.783Z,3.80
2018-12-20T13:27:44.106Z,3.37
2018-12-20T13:30:13.795Z,2.67
2018-12-20T13:32:43.661Z,4.67
2018-12-20T13:35:12.792Z,4.80
2018-12-20T13:37:42.166Z,6.10
2018-12-20T13:40:11.580Z,6.03
2018-12-20T13:42:41.371Z,3.47
2018-12-20T13:45:10.701Z,3.57
2018-12-20T13:47:39.810Z,2.70
2018-12-20T13:50:09.593Z,4.70
2018-12-20T13:52:38.856Z,3.30
2018-12-20T13:55:08.475Z,3.37
2018-12-20T13:57:37.785Z,4.97
2018-12-20T14:00:11.478Z,2.53
2018-12-20T14:02:41.036Z,6.47
2018-12-20T14:05:10.496Z,1.70
2018-12-20T14:07:39.699Z,4.30
2018-12-20T14:10:09.541Z,4.57
2018-12-20T14:12:38.707Z,3.43
2018-12-20T14:15:09.077Z,1.97
2018-12-20T14:17:38.226Z,2.73
2018-12-20T14:20:08.157Z,4.93
2018-12-20T14:22:37.357Z,4.80
2018-12-20T14:25:06.652Z,2.80
2018-12-20T14:27:35.900Z,2.53
2018-12-20T14:30:06.353Z,3.20
2018-12-20T14:32:35.594Z,4.23
2018-12-20T14:35:05.714Z,1.80
2018-12-20T14:37:34.915Z,4.17
2018-12-20T14:40:04.903Z,4.33
2018-12-20T14:42:45.067Z,3.47
2018-12-20T14:45:14.155Z,2.50
2018-12-20T14:47:43.293Z,1.20
2018-12-20T14:50:12.563Z,2.30
2018-12-20T14:52:42.036Z,4.23
2018-12-20T14:55:11.200Z,5.00
2018-12-20T14:57:40.578Z,7.90
2018-12-20T15:00:11.247Z,7.53
2018-12-20T15:02:40.677Z,7.87
2018-12-20T15:05:09.822Z,5.23
2018-12-20T15:07:39.063Z,5.30
2018-12-20T15:10:10.003Z,7.00
2018-12-20T15:12:39.694Z,6.70
2018-12-20T15:15:09.884Z,3.17
2018-12-20T15:17:39.103Z,7.67
2018-12-20T15:20:09.418Z,6.47
2018-12-20T15:22:38.693Z,5.67
2018-12-20T15:25:08.040Z,6.50
2018-12-20T15:27:37.223Z,6.10
2018-12-20T15:30:07.451Z,9.10
2018-12-20T15:32:36.709Z,7.37
2018-12-20T15:35:06.216Z,5.73
2018-12-20T15:37:35.211Z,4.97
2018-12-20T15:40:05.315Z,5.13
2018-12-20T15:42:34.539Z,5.90
2018-12-20T15:45:04.056Z,5.30
2018-12-20T15:47:33.294Z,7.33
2018-12-20T15:50:02.787Z,5.53
2018-12-20T15:52:31.923Z,9.40
2018-12-20T15:55:00.764Z,15.00
2018-12-20T15:57:30.126Z,5.93
2018-12-20T15:59:59.842Z,9.80
2018-12-20T16:02:29.195Z,11.23
2018-12-20T16:04:58.309Z,18.27
2018-12-20T16:07:27.742Z,11.60
2018-12-20T16:09:57.007Z,4.63
2018-12-20T16:12:26.951Z,5.73
2018-12-20T16:15:00.009Z,4.27
2018-12-20T16:17:29.140Z,5.77
2018-12-20T16:19:58.368Z,5.37
2018-12-20T16:22:27.509Z,6.50
2018-12-20T16:24:56.570Z,3.83
2018-12-20T16:27:26.978Z,14.87
2018-12-20T16:29:56.603Z,5.77
2018-12-20T16:32:25.930Z,2.77
2018-12-20T16:34:55.269Z,3.33
2018-12-20T16:37:24.269Z,6.97
2018-12-20T16:39:53.428Z,4.00
2018-12-20T16:42:22.754Z,4.20
2018-12-20T16:44:51.957Z,3.97
2018-12-20T16:47:21.448Z,8.10
2018-12-20T16:49:50.755Z,6.07
2018-12-20T16:52:20.014Z,5.10
2018-12-20T16:54:49.386Z,6.60
2018-12-20T16:57:18.480Z,9.70
2018-12-20T16:59:47.606Z,8.20
2018-12-20T17:02:16.914Z,9.33
2018-12-20T17:04:46.180Z,6.43
2018-12-20T17:07:15.410Z,7.93
2018-12-20T17:09:44.740Z,6.63
2018-12-20T17:12:14.059Z,7.87
2018-12-20T17:14:43.320Z,4.03
2018-12-20T17:17:12.584Z,6.97
2018-12-20T17:19:41.599Z,5.63
2018-12-20T17:22:10.874Z,7.43
2018-12-20T17:24:40.458Z,6.17
2018-12-20T17:27:09.279Z,6.63
2018-12-20T17:29:38.743Z,6.27
2018-12-20T17:32:08.083Z,6.20
2018-12-20T17:34:37.199Z,7.83
2018-12-20T17:37:06.457Z,3.77
2018-12-20T17:39:36.151Z,4.53
2018-12-20T17:42:05.990Z,5.13
2018-12-20T17:44:35.102Z,6.70
2018-12-20T17:47:04.454Z,6.33
2018-12-20T17:49:34.006Z,8.63
2018-12-20T17:52:09.868Z,6.00
2018-12-20T17:54:39.272Z,8.00
2018-12-20T17:57:08.472Z,11.17
2018-12-20T17:59:37.701Z,9.30
2018-12-20T18:02:07.009Z,10.63
2018-12-20T18:04:36.275Z,11.40
2018-12-20T18:07:05.648Z,11.47
2018-12-20T18:09:34.936Z,13.97
2018-12-20T18:12:04.468Z,14.17
2018-12-20T18:14:33.693Z,13.10
2018-12-20T18:17:03.356Z,16.53
2018-12-20T18:19:38.956Z,12.23
2018-12-20T18:22:03.821Z,9.50
2018-12-20T18:24:32.922Z,10.03
2018-12-20T18:27:02.312Z,12.33
2018-12-20T18:29:31.518Z,9.73
2018-12-20T18:32:00.891Z,5.70
2018-12-20T18:34:30.118Z,8.53
2018-12-20T18:36:59.574Z,7.07
2018-12-20T18:39:29.098Z,10.70
2018-12-20T18:41:58.236Z,7.97
2018-12-20T18:44:27.924Z,9.53
2018-12-20T18:46:56.831Z,10.47
2018-12-20T18:49:28.815Z,4.90
2018-12-20T18:51:57.835Z,16.77
2018-12-20T18:54:26.856Z,4.30
2018-12-20T18:56:56.098Z,6.13
2018-12-20T18:59:25.249Z,7.23
2018-12-20T19:01:54.863Z,4.10
2018-12-20T19:04:24.183Z,4.30
2018-12-20T19:06:53.294Z,6.17
2018-12-20T19:09:22.578Z,10.73
2018-12-20T19:11:52.013Z,9.30
2018-12-20T19:14:20.974Z,5.27
2018-12-20T19:16:50.450Z,9.37
2018-12-20T19:19:19.814Z,6.93
2018-12-20T19:21:48.898Z,6.17
2018-12-20T19:24:18.141Z,4.47
2018-12-20T19:26:47.349Z,5.20
2018-12-20T19:29:16.356Z,4.43
2018-12-20T19:31:45.509Z,5.13
2018-12-20T19:34:14.270Z,7.90
2018-12-20T19:36:43.557Z,8.87
2018-12-20T19:39:15.462Z,5.00
2018-12-20T19:41:44.541Z,3.90
2018-12-20T19:44:13.755Z,5.83
2018-12-20T19:46:42.959Z,5.40
2018-12-20T19:49:14.136Z,6.37
2018-12-20T19:51:43.314Z,3.80
2018-12-20T19:54:12.753Z,7.40
2018-12-20T19:56:41.839Z,5.70
2018-12-20T19:59:11.464Z,6.50
2018-12-20T20:01:40.717Z,6.10
2018-12-20T20:04:10.128Z,4.40
2018-12-20T20:06:39.786Z,5.47
2018-12-20T20:09:08.795Z,9.13
2018-12-20T20:11:37.953Z,8.90
2018-12-20T20:14:07.515Z,7.30
2018-12-20T20:16:36.878Z,8.67
2018-12-20T20:19:05.973Z,6.47
2018-12-20T20:21:37.652Z,7.27
2018-12-20T20:24:07.052Z,5.60
2018-12-20T20:26:37.997Z,7.90
2018-12-20T20:29:07.778Z,6.20
2018-12-20T20:31:37.180Z,6.27
2018-12-20T20:34:06.418Z,7.83
2018-12-20T20:36:35.983Z,7.03
2018-12-20T20:39:07.529Z,4.57
2018-12-20T20:41:36.923Z,8.17
2018-12-20T20:44:06.530Z,9.13
2018-12-20T20:46:35.707Z,6.27
2018-12-20T20:49:05.182Z,4.63
2018-12-20T20:51:34.536Z,5.77
2018-12-20T20:54:05.521Z,8.70
2018-12-20T20:56:34.723Z,8.67
2018-12-20T20:59:04.395Z,9.73
2018-12-20T21:01:33.727Z,8.60
2018-12-20T21:04:03.782Z,5.70
2018-12-20T21:06:33.253Z,7.47
2018-12-20T21:09:02.991Z,6.67
2018-12-20T21:11:32.702Z,6.30
2018-12-20T21:14:01.933Z,10.17
2018-12-20T21:16:30.974Z,10.67
2018-12-20T21:19:00.035Z,12.20
2018-12-20T21:21:29.011Z,10.10
2018-12-20T21:23:58.367Z,8.37
2018-12-20T21:26:27.785Z,10.57
2018-12-20T21:28:56.851Z,10.33
2018-12-20T21:31:26.299Z,8.30
2018-12-20T21:33:55.403Z,8.30
2018-12-20T21:36:24.590Z,6.50
2018-12-20T21:38:54.280Z,5.97
2018-12-20T21:41:24.343Z,6.93
2018-12-20T21:43:53.595Z,6.30
2018-12-20T21:46:22.318Z,11.67
2018-12-20T21:48:51.535Z,11.27
2018-12-20T21:51:21.060Z,12.77
2018-12-20T21:53:54.963Z,5.77
2018-12-20T21:56:22.730Z,6.87
2018-12-20T21:58:52.160Z,12.33
2018-12-20T22:01:21.510Z,12.13
2018-12-20T22:03:51.259Z,9.93
2018-12-20T22:06:21.186Z,6.87
2018-12-20T22:08:50.134Z,6.50
2018-12-20T22:11:19.664Z,8.07
2018-12-20T22:13:48.951Z,7.60
2018-12-20T22:16:17.828Z,3.40
2018-12-20T22:18:47.057Z,4.13
2018-12-20T22:21:16.703Z,3.63
2018-12-20T22:23:45.919Z,4.07
2018-12-20T22:26:15.052Z,5.03
2018-12-20T22:28:44.285Z,4.33
2018-12-20T22:31:13.977Z,5.90
2018-12-20T22:33:43.309Z,4.57
2018-12-20T22:36:12.446Z,6.70
2018-12-20T22:38:41.682Z,5.97
2018-12-20T22:41:10.820Z,3.60
2018-12-20T22:43:40.105Z,7.00
2018-12-20T22:46:11.107Z,5.17
2018-12-20T22:48:40.524Z,5.83
2018-12-20T22:51:09.650Z,4.63
2018-12-20T22:53:38.910Z,3.90
2018-12-20T22:56:08.110Z,7.13
2018-12-20T22:58:37.154Z,8.77
2018-12-20T23:01:06.315Z,3.10
2018-12-20T23:03:35.966Z,3.73
2018-12-20T23:06:05.359Z,4.23
2018-12-20T23:08:34.726Z,3.40
2018-12-20T23:11:04.378Z,4.77
2018-12-20T23:13:34.108Z,4.63
2018-12-20T23:16:03.794Z,3.40
2018-12-20T23:18:33.122Z,3.10
2018-12-20T23:21:05.013Z,3.43
2018-12-20T23:23:33.563Z,3.03
2018-12-20T23:26:02.671Z,3.87
2018-12-20T23:28:32.064Z,4.87
2018-12-20T23:31:01.122Z,2.90
2018-12-20T23:33:30.383Z,4.17
2018-12-20T23:35:59.830Z,6.10
2018-12-20T23:38:29.356Z,5.63
2018-12-20T23:40:58.290Z,3.00
2018-12-20T23:43:27.718Z,4.13
2018-12-20T23:45:56.790Z,7.43
2018-12-20T23:48:26.029Z,3.17
2018-12-20T23:50:55.054Z,2.50
2018-12-20T23:53:24.215Z,5.87
2018-12-20T23:55:53.564Z,2.80
2018-12-20T23:58:23.118Z,5.40
